createdAt,value
2022-11-04T00:00:13.152Z,8.80
2022-11-04T00:02:39.861Z,8.02
2022-11-04T00:05:06.764Z,8.43
2022-11-04T00:07:51.909Z,8.20
2022-11-04T00:10:38.480Z,8.27
2022-11-04T00:13:05.282Z,7.93
2022-11-04T00:15:54.990Z,8.23
2022-11-04T00:18:21.668Z,8.30
2022-11-04T00:21:06.909Z,8.90
2022-11-04T00:23:52.119Z,8.35
2022-11-04T00:26:37.184Z,8.25
2022-11-04T00:29:03.767Z,7.97
2022-11-04T00:31:48.970Z,7.70
2022-11-04T00:34:15.640Z,7.30
2022-11-04T00:36:42.210Z,7.40
2022-11-04T00:39:09.024Z,7.30
2022-11-04T00:41:35.620Z,7.85
2022-11-04T00:44:03.535Z,7.82
2022-11-04T00:46:31.412Z,7.50
2022-11-04T00:48:58.539Z,7.80
2022-11-04T00:51:25.348Z,7.88
2022-11-04T00:53:52.018Z,7.05
2022-11-04T00:56:18.792Z,6.97
2022-11-04T00:58:45.499Z,6.63
2022-11-04T01:01:13.691Z,7.70
2022-11-04T01:03:40.391Z,7.45
2022-11-04T01:06:07.006Z,7.82
2022-11-04T01:08:33.697Z,7.45
2022-11-04T01:11:07.461Z,6.80
2022-11-04T01:13:34.222Z,7.63
2022-11-04T01:16:01.560Z,7.25
2022-11-04T01:18:28.181Z,7.07
2022-11-04T01:20:54.939Z,7.20
2022-11-04T01:23:21.564Z,6.90
2022-11-04T01:25:48.237Z,7.07
2022-11-04T01:28:15.544Z,6.63
2022-11-04T01:30:42.147Z,7.45
2022-11-04T01:33:08.924Z,7.43
2022-11-04T01:35:35.582Z,7.13
2022-11-04T01:38:02.200Z,7.38
2022-11-04T01:41:07.840Z,7.10
2022-11-04T01:43:43.479Z,6.68
2022-11-04T01:46:10.151Z,7.20
2022-11-04T01:48:36.838Z,6.68
2022-11-04T01:51:03.498Z,6.13
2022-11-04T01:53:34.984Z,7.78
2022-11-04T01:56:04.481Z,6.38
2022-11-04T01:58:32.805Z,7.05
2022-11-04T02:00:59.491Z,7.40
2022-11-04T02:03:32.720Z,7.22
2022-11-04T02:05:59.349Z,7.10
2022-11-04T02:08:25.953Z,7.28
2022-11-04T02:10:56.517Z,7.40
2022-11-04T02:13:23.134Z,7.43
2022-11-04T02:16:17.472Z,6.75
2022-11-04T02:19:11.907Z,6.63
2022-11-04T02:22:18.383Z,7.30
2022-11-04T02:25:04.434Z,7.22
2022-11-04T02:27:37.973Z,6.60
2022-11-04T02:30:08.479Z,7.00
2022-11-04T02:32:37.977Z,7.43
2022-11-04T02:35:24.363Z,7.45
2022-11-04T02:38:07.374Z,7.20
2022-11-04T02:40:41.593Z,6.60
2022-11-04T02:43:39.566Z,7.25
2022-11-04T02:46:18.342Z,7.40
2022-11-04T02:48:47.776Z,6.40
2022-11-04T02:51:28.204Z,8.15
2022-11-04T02:54:09.737Z,7.50
2022-11-04T02:56:41.715Z,7.93
2022-11-04T02:59:11.854Z,7.97
2022-11-04T03:01:39.932Z,7.63
2022-11-04T03:04:19.642Z,7.60
2022-11-04T03:06:47.719Z,7.93
2022-11-04T03:09:14.508Z,7.65
2022-11-04T03:11:42.494Z,8.18
2022-11-04T03:14:13.356Z,7.45
2022-11-04T03:16:43.157Z,8.07
2022-11-04T03:19:09.698Z,7.07
2022-11-04T03:21:39.185Z,7.65
2022-11-04T03:24:05.933Z,8.15
2022-11-04T03:26:41.806Z,7.38
2022-11-04T03:29:19.650Z,7.93
2022-11-04T03:31:49.399Z,7.93
2022-11-04T03:34:16.035Z,7.18
2022-11-04T03:36:42.674Z,7.80
2022-11-04T03:39:09.294Z,7.68
2022-11-04T03:41:48.962Z,7.72
2022-11-04T03:44:15.572Z,7.95
2022-11-04T03:46:42.202Z,7.05
2022-11-04T03:49:08.856Z,7.85
2022-11-04T03:51:35.495Z,7.10
2022-11-04T03:54:02.111Z,6.63
2022-11-04T03:56:44.867Z,8.75
2022-11-04T03:59:43.696Z,7.88
2022-11-04T04:02:15.172Z,8.98
2022-11-04T04:04:52.957Z,7.38
2022-11-04T04:07:44.397Z,7.30
2022-11-04T04:10:35.521Z,8.50
2022-11-04T04:13:03.419Z,8.52
2022-11-04T04:15:34.811Z,8.98
2022-11-04T04:18:03.372Z,8.48
2022-11-04T04:20:30.442Z,8.15
2022-11-04T04:23:35.889Z,9.35
2022-11-04T04:26:22.297Z,8.80
2022-11-04T04:28:48.926Z,8.60
2022-11-04T04:31:35.687Z,7.70
2022-11-04T04:34:03.030Z,8.07
2022-11-04T04:36:30.795Z,8.55
2022-11-04T04:39:15.962Z,9.32
2022-11-04T04:42:01.011Z,9.00
2022-11-04T04:44:46.730Z,8.90
2022-11-04T04:47:20.173Z,9.25
2022-11-04T04:49:53.800Z,8.98
2022-11-04T04:52:20.528Z,9.07
2022-11-04T04:54:47.232Z,8.65
2022-11-04T04:57:13.968Z,9.23
2022-11-04T04:59:40.593Z,8.32
2022-11-04T05:02:07.403Z,9.52
2022-11-04T05:04:34.110Z,9.32
2022-11-04T05:07:07.876Z,9.25
2022-11-04T05:09:34.524Z,9.20
2022-11-04T05:12:01.136Z,9.63
2022-11-04T05:14:27.740Z,9.07
2022-11-04T05:16:54.507Z,8.98
2022-11-04T05:19:21.076Z,9.25
2022-11-04T05:21:47.650Z,9.18
2022-11-04T05:24:14.228Z,9.80
2022-11-04T05:26:40.845Z,9.27
2022-11-04T05:29:07.637Z,9.43
2022-11-04T05:31:34.371Z,8.73
2022-11-04T05:34:01.275Z,9.43
2022-11-04T05:40:27.268Z,8.45
2022-11-04T05:42:53.978Z,8.68
2022-11-04T05:45:20.673Z,9.68
2022-11-04T05:47:47.274Z,10.60
2022-11-04T05:50:13.907Z,9.38
2022-11-04T05:52:40.598Z,9.27
2022-11-04T05:55:07.486Z,8.45
2022-11-04T05:57:35.629Z,10.25
2022-11-04T06:00:02.995Z,8.88
2022-11-04T06:02:29.782Z,10.02
2022-11-04T06:04:56.472Z,9.38
2022-11-04T06:07:23.099Z,9.20
2022-11-04T06:09:49.713Z,10.00
2022-11-04T06:12:16.843Z,9.27
2022-11-04T06:14:43.912Z,8.75
2022-11-04T06:17:17.728Z,9.23
2022-11-04T06:19:44.369Z,9.63
2022-11-04T06:22:14.867Z,10.38
2022-11-04T06:24:41.753Z,10.00
2022-11-04T06:27:09.009Z,9.35
2022-11-04T06:29:40.003Z,10.27
2022-11-04T06:32:10.454Z,9.25
2022-11-04T06:34:37.411Z,9.60
2022-11-04T06:37:04.066Z,9.70
2022-11-04T06:39:30.687Z,9.50
2022-11-04T06:41:59.697Z,9.82
2022-11-04T06:44:29.016Z,9.82
2022-11-04T06:46:55.628Z,10.07
2022-11-04T06:49:23.253Z,9.65
2022-11-04T06:51:50.046Z,8.80
2022-11-04T06:54:16.819Z,9.82
2022-11-04T06:56:43.670Z,9.88
2022-11-04T06:59:16.255Z,10.13
2022-11-04T07:01:43.010Z,9.60
2022-11-04T07:04:11.825Z,10.93
2022-11-04T07:06:41.181Z,9.27
2022-11-04T07:09:11.620Z,9.70
2022-11-04T07:11:38.372Z,9.50
2022-11-04T07:14:05.089Z,9.07
2022-11-04T07:16:31.659Z,9.70
2022-11-04T07:18:58.310Z,9.48
2022-11-04T07:21:24.928Z,10.98
2022-11-04T07:23:51.680Z,11.10
2022-11-04T07:26:18.267Z,10.38
2022-11-04T07:28:44.983Z,10.63
2022-11-04T07:31:12.500Z,10.68
2022-11-04T07:34:04.035Z,11.23
2022-11-04T07:36:30.677Z,9.63
2022-11-04T07:38:57.265Z,9.68
2022-11-04T07:41:24.106Z,11.13
2022-11-04T07:43:53.549Z,10.77
2022-11-04T07:46:20.511Z,11.00
2022-11-04T07:48:47.281Z,10.77
2022-11-04T07:51:16.413Z,10.32
2022-11-04T07:53:43.085Z,9.90
2022-11-04T07:56:13.523Z,9.73
2022-11-04T07:58:40.520Z,10.73
2022-11-04T08:01:09.121Z,11.10
2022-11-04T08:03:36.861Z,11.30
2022-11-04T08:06:04.482Z,9.60
2022-11-04T08:08:31.289Z,9.75
2022-11-04T08:11:00.591Z,9.95
2022-11-04T08:13:28.274Z,10.35
2022-11-04T08:15:55.390Z,9.85
2022-11-04T08:18:22.096Z,9.85
2022-11-04T08:20:52.155Z,11.70
2022-11-04T08:23:19.054Z,9.88
2022-11-04T08:25:45.682Z,10.30
2022-11-04T08:28:17.719Z,10.45
2022-11-04T08:30:58.867Z,10.25
2022-11-04T08:33:26.515Z,10.77
2022-11-04T08:35:54.856Z,11.77
2022-11-04T08:38:21.516Z,10.38
2022-11-04T08:40:48.169Z,9.90
2022-11-04T08:43:14.798Z,10.85
2022-11-04T08:45:45.682Z,10.18
2022-11-04T08:48:13.509Z,10.80
2022-11-04T08:50:40.269Z,11.13
2022-11-04T08:53:07.358Z,10.85
2022-11-04T08:55:34.295Z,10.23
2022-11-04T08:58:01.270Z,10.40
2022-11-04T09:00:27.924Z,10.23
2022-11-04T09:02:55.684Z,10.32
2022-11-04T09:05:22.738Z,10.27
2022-11-04T09:07:49.380Z,9.50
2022-11-04T09:10:16.104Z,9.43
2022-11-04T09:12:43.313Z,10.50
2022-11-04T09:15:10.280Z,10.95
2022-11-04T09:17:37.251Z,11.45
2022-11-04T09:20:04.918Z,9.98
2022-11-04T09:22:32.007Z,9.30
2022-11-04T09:24:59.022Z,10.52
2022-11-04T09:27:25.691Z,10.65
2022-11-04T09:29:52.419Z,9.40
2022-11-04T09:32:19.140Z,11.05
2022-11-04T09:34:45.839Z,10.85
2022-11-04T09:37:13.010Z,10.00
2022-11-04T09:39:39.628Z,10.32
2022-11-04T09:42:22.907Z,10.63
2022-11-04T09:47:50.043Z,10.63
2022-11-04T09:50:21.399Z,11.27
2022-11-04T09:52:51.337Z,11.02
2022-11-04T09:55:41.901Z,11.23
2022-11-04T09:58:09.640Z,10.73
2022-11-04T10:00:36.869Z,11.13
2022-11-04T10:03:16.722Z,9.75
2022-11-04T10:05:56.242Z,11.05
2022-11-04T10:08:46.327Z,10.50
2022-11-04T10:11:16.896Z,11.32
2022-11-04T10:13:46.909Z,11.45
2022-11-04T10:16:16.521Z,11.38
2022-11-04T10:18:46.276Z,11.75
2022-11-04T10:21:15.783Z,12.10
2022-11-04T10:23:42.584Z,13.27
2022-11-04T10:27:00.839Z,12.68
2022-11-04T10:29:35.103Z,12.23
2022-11-04T10:32:03.184Z,12.30
2022-11-04T10:34:36.742Z,12.85
2022-11-04T10:37:03.637Z,11.48
2022-11-04T10:39:31.540Z,12.30
2022-11-04T10:41:58.391Z,11.73
2022-11-04T10:44:29.248Z,12.70
2022-11-04T10:47:27.918Z,13.32
2022-11-04T10:50:28.257Z,13.60
2022-11-04T10:53:12.589Z,15.30
2022-11-04T10:56:03.051Z,14.55
2022-11-04T10:58:31.591Z,14.38
2022-11-04T11:00:59.332Z,13.68
2022-11-04T11:03:31.178Z,14.18
2022-11-04T11:06:15.161Z,14.07
2022-11-04T11:08:43.156Z,14.95
2022-11-04T11:11:09.864Z,14.85
2022-11-04T11:13:41.053Z,14.85
2022-11-04T11:16:27.890Z,14.90
2022-11-04T11:19:27.187Z,15.20
2022-11-04T11:21:56.344Z,14.52
2022-11-04T11:24:24.974Z,13.93
2022-11-04T11:27:01.403Z,14.60
2022-11-04T11:29:32.113Z,14.68
2022-11-04T11:31:59.264Z,14.57
2022-11-04T11:34:28.411Z,14.95
2022-11-04T11:36:55.776Z,15.57
2022-11-04T11:39:28.175Z,16.50
2022-11-04T11:41:56.611Z,15.13
2022-11-04T11:44:34.087Z,14.95
2022-11-04T11:47:03.046Z,15.02
2022-11-04T11:49:32.729Z,16.98
2022-11-04T11:52:29.916Z,14.38
2022-11-04T11:55:01.977Z,15.15
2022-11-04T12:00:40.319Z,15.05
2022-11-04T12:03:31.233Z,15.43
2022-11-04T12:06:20.540Z,16.20
2022-11-04T12:09:19.018Z,15.52
2022-11-04T12:11:55.428Z,15.15
2022-11-04T12:14:49.077Z,14.90
2022-11-04T12:17:40.884Z,14.70
2022-11-04T12:20:27.719Z,14.30
2022-11-04T12:23:08.381Z,15.90
2022-11-04T12:26:04.487Z,15.02
2022-11-04T12:28:53.950Z,14.95
2022-11-04T12:31:42.422Z,14.15
2022-11-04T12:34:15.028Z,15.82
2022-11-04T12:37:04.553Z,14.38
2022-11-04T12:39:53.464Z,14.52
2022-11-04T12:42:44.121Z,14.40
2022-11-04T12:45:16.426Z,13.32
2022-11-04T12:47:46.462Z,14.10
2022-11-04T12:50:34.566Z,15.02
2022-11-04T12:53:01.069Z,14.48
2022-11-04T12:55:44.010Z,14.32
2022-11-04T12:58:14.780Z,14.40
2022-11-04T13:00:41.514Z,14.52
2022-11-04T13:03:24.410Z,15.70
2022-11-04T13:05:54.240Z,15.50
2022-11-04T13:08:41.747Z,15.13
2022-11-04T13:11:24.568Z,14.70
2022-11-04T13:14:29.931Z,14.75
2022-11-04T13:17:00.228Z,15.23
2022-11-04T13:19:34.771Z,13.60
2022-11-04T13:22:03.837Z,14.32
2022-11-04T13:24:31.946Z,14.07
2022-11-04T13:27:01.789Z,14.20
2022-11-04T13:29:28.469Z,14.50
2022-11-04T13:32:20.407Z,13.52
2022-11-04T13:34:57.068Z,12.57
2022-11-04T13:37:55.852Z,12.95
2022-11-04T13:40:45.177Z,14.90
2022-11-04T13:43:38.399Z,12.50
2022-11-04T13:46:11.054Z,14.85
2022-11-04T13:48:39.117Z,14.00
2022-11-04T13:51:07.409Z,11.23
2022-11-04T13:53:44.561Z,11.90
2022-11-04T13:56:33.551Z,10.55
2022-11-04T13:59:27.786Z,12.10
2022-11-04T14:02:21.226Z,8.68
2022-11-04T14:04:48.424Z,9.45
2022-11-04T14:07:17.932Z,9.15
2022-11-04T14:09:44.504Z,7.68
2022-11-04T14:12:17.732Z,7.47
2022-11-04T14:14:48.782Z,7.88
2022-11-04T14:17:33.512Z,6.97
2022-11-04T14:20:11.557Z,7.10
2022-11-04T14:22:44.213Z,5.90
2022-11-04T14:25:30.364Z,6.40
2022-11-04T14:28:02.010Z,6.32
2022-11-04T14:30:37.618Z,5.68
2022-11-04T14:33:08.895Z,5.47
2022-11-04T14:35:35.837Z,5.65
2022-11-04T14:38:07.087Z,5.75
2022-11-04T14:40:51.691Z,6.00
2022-11-04T14:43:24.497Z,4.50
2022-11-04T14:45:51.141Z,5.53
2022-11-04T14:48:19.444Z,6.10
2022-11-04T14:50:49.795Z,5.38
2022-11-04T14:53:23.803Z,5.38
2022-11-04T14:56:03.402Z,5.50
2022-11-04T14:58:30.090Z,5.55
2022-11-04T15:00:59.647Z,4.90
2022-11-04T15:04:09.622Z,5.03
2022-11-04T15:06:15.341Z,4.90
2022-11-04T15:09:27.959Z,5.55
2022-11-04T15:12:32.981Z,5.20
2022-11-04T15:15:00.018Z,4.70
2022-11-04T15:17:28.621Z,5.47
2022-11-04T15:19:56.732Z,5.45
2022-11-04T15:22:23.505Z,5.32
2022-11-04T15:24:52.959Z,5.35
2022-11-04T15:27:23.272Z,7.20
2022-11-04T15:30:16.724Z,6.65
2022-11-04T15:32:53.364Z,7.80
2022-11-04T15:35:20.055Z,6.78
2022-11-04T15:37:47.420Z,6.72
2022-11-04T15:40:14.484Z,6.85
2022-11-04T15:42:43.327Z,5.80
2022-11-04T15:45:22.616Z,5.88
2022-11-04T15:47:49.992Z,5.35
2022-11-04T15:50:23.556Z,6.28
2022-11-04T15:52:53.660Z,5.88
2022-11-04T15:55:25.634Z,6.60
2022-11-04T15:57:52.280Z,6.80
2022-11-04T16:00:30.570Z,6.65
2022-11-04T16:03:00.394Z,6.97
2022-11-04T16:05:33.293Z,8.52
2022-11-04T16:11:40.638Z,7.05
2022-11-04T16:14:26.933Z,6.75
2022-11-04T16:16:53.554Z,7.57
2022-11-04T16:19:23.494Z,6.90
2022-11-04T16:21:57.945Z,6.15
2022-11-04T16:24:25.742Z,6.75
2022-11-04T16:26:54.898Z,7.68
2022-11-04T16:29:25.820Z,7.82
2022-11-04T16:32:08.436Z,7.50
2022-11-04T16:34:35.529Z,7.03
2022-11-04T16:37:02.408Z,7.05
2022-11-04T16:39:29.100Z,7.82
2022-11-04T16:41:56.816Z,7.63
2022-11-04T16:44:23.518Z,7.10
2022-11-04T16:46:50.177Z,7.60
2022-11-04T16:49:18.560Z,7.38
2022-11-04T16:51:46.074Z,7.53
2022-11-04T16:54:12.773Z,6.97
2022-11-04T16:56:39.442Z,7.90
2022-11-04T16:59:06.075Z,7.25
2022-11-04T17:01:32.808Z,7.55
2022-11-04T17:03:59.658Z,7.50
2022-11-04T17:06:26.313Z,7.13
2022-11-04T17:08:53.286Z,8.30
2022-11-04T17:11:19.917Z,7.50
2022-11-04T17:13:46.483Z,7.75
2022-11-04T17:16:13.644Z,7.93
2022-11-04T17:18:40.500Z,8.55
2022-11-04T17:21:08.415Z,7.90
2022-11-04T17:23:35.046Z,7.60
2022-11-04T17:26:01.721Z,8.10
2022-11-04T17:28:28.401Z,7.70
2022-11-04T17:30:55.214Z,8.05
2022-11-04T17:33:22.147Z,8.18
2022-11-04T17:35:49.538Z,9.10
2022-11-04T17:38:18.099Z,8.32
2022-11-04T17:41:03.215Z,9.43
2022-11-04T17:43:48.359Z,8.93
2022-11-04T17:46:33.480Z,7.68
2022-11-04T17:49:04.925Z,8.52
2022-11-04T17:51:31.715Z,8.35
2022-11-04T17:53:58.342Z,8.60
2022-11-04T17:56:25.258Z,7.70
2022-11-04T17:58:52.162Z,7.47
2022-11-04T18:01:20.679Z,7.93
2022-11-04T18:03:47.543Z,7.35
2022-11-04T18:06:14.217Z,8.02
2022-11-04T18:08:40.952Z,7.03
2022-11-04T18:11:09.810Z,7.40
2022-11-04T18:13:36.484Z,6.78
2022-11-04T18:16:13.169Z,6.28
2022-11-04T18:18:40.250Z,5.80
2022-11-04T18:21:07.896Z,6.15
2022-11-04T18:23:34.711Z,6.22
2022-11-04T18:26:02.975Z,5.63
2022-11-04T18:28:29.645Z,5.72
2022-11-04T18:30:56.284Z,5.85
2022-11-04T18:33:22.927Z,6.05
2022-11-04T18:35:49.585Z,5.93
2022-11-04T18:38:16.168Z,6.40
2022-11-04T18:40:42.800Z,7.75
2022-11-04T18:43:09.784Z,6.82
2022-11-04T18:45:36.801Z,6.53
2022-11-04T18:48:03.714Z,7.03
2022-11-04T18:50:30.421Z,6.82
2022-11-04T18:52:57.123Z,7.13
2022-11-04T18:55:24.405Z,6.60
2022-11-04T18:57:55.380Z,6.25
2022-11-04T19:00:22.639Z,6.63
2022-11-04T19:02:49.280Z,6.55
2022-11-04T19:05:17.871Z,7.03
2022-11-04T19:07:44.550Z,6.35
2022-11-04T19:10:11.681Z,6.45
2022-11-04T19:12:56.962Z,7.00
2022-11-04T19:15:34.402Z,8.93
2022-11-04T19:18:01.413Z,8.10
2022-11-04T19:20:28.216Z,7.95
2022-11-04T19:22:54.864Z,9.00
2022-11-04T19:25:21.545Z,8.90
2022-11-04T19:28:05.214Z,10.00
2022-11-04T19:30:34.937Z,9.40
2022-11-04T19:33:01.766Z,6.68
2022-11-04T19:35:28.906Z,3.17
2022-11-04T19:37:55.806Z,2.70
2022-11-04T19:40:22.469Z,2.40
2022-11-04T19:43:07.673Z,1.90
2022-11-04T19:45:34.289Z,2.30
2022-11-04T19:48:01.242Z,2.30
2022-11-04T19:50:27.883Z,2.15
2022-11-04T19:52:54.527Z,2.08
2022-11-04T19:55:21.205Z,2.13
2022-11-04T19:57:47.933Z,1.60
2022-11-04T20:00:15.355Z,1.90
2022-11-04T20:02:42.077Z,1.55
2022-11-04T20:05:09.827Z,1.60
2022-11-04T20:07:36.582Z,1.40
2022-11-04T20:10:03.182Z,1.50
2022-11-04T20:12:48.608Z,1.38
2022-11-04T20:17:41.638Z,1.20
2022-11-04T20:20:08.582Z,1.58
2022-11-04T20:22:35.222Z,1.33
2022-11-04T20:25:01.906Z,1.45
2022-11-04T20:27:28.573Z,1.35
2022-11-04T20:29:55.153Z,1.42
2022-11-04T20:32:21.831Z,1.17
2022-11-04T20:34:48.590Z,1.35
2022-11-04T20:37:15.236Z,1.25
2022-11-04T20:39:41.985Z,1.50
2022-11-04T20:42:08.672Z,1.20
2022-11-04T20:44:35.303Z,1.80
2022-11-04T20:47:01.918Z,1.70
2022-11-04T20:49:28.554Z,1.40
2022-11-04T20:51:55.875Z,1.50
2022-11-04T20:54:22.572Z,1.67
2022-11-04T20:56:49.221Z,1.55
2022-11-04T20:59:16.733Z,1.67
2022-11-04T21:01:44.510Z,1.88
2022-11-04T21:04:14.957Z,1.70
2022-11-04T21:06:42.035Z,1.90
2022-11-04T21:09:09.580Z,2.10
2022-11-04T21:11:36.204Z,2.20
2022-11-04T21:14:03.524Z,2.38
2022-11-04T21:16:30.756Z,2.67
2022-11-04T21:18:58.091Z,2.35
2022-11-04T21:21:27.455Z,3.42
2022-11-04T21:23:58.096Z,3.33
2022-11-04T21:26:25.988Z,3.50
2022-11-04T21:29:01.612Z,3.25
2022-11-04T21:31:28.772Z,3.67
2022-11-04T21:33:55.810Z,3.63
2022-11-04T21:36:22.596Z,3.92
2022-11-04T21:38:49.753Z,3.75
2022-11-04T21:41:18.288Z,3.70
2022-11-04T21:43:45.002Z,3.88
2022-11-04T21:46:13.666Z,4.50
2022-11-04T21:48:40.649Z,4.47
2022-11-04T21:51:08.096Z,5.40
2022-11-04T21:53:34.658Z,5.10
2022-11-04T21:56:11.218Z,5.10
2022-11-04T21:58:37.912Z,4.95
2022-11-04T22:01:05.678Z,5.63
2022-11-04T22:03:32.613Z,5.07
2022-11-04T22:06:06.725Z,5.50
2022-11-04T22:08:33.776Z,5.03
2022-11-04T22:11:16.827Z,5.75
2022-11-04T22:13:43.422Z,5.22
2022-11-04T22:16:14.514Z,6.03
2022-11-04T22:18:41.685Z,6.22
2022-11-04T22:21:21.707Z,6.75
2022-11-04T22:23:48.354Z,5.68
2022-11-04T22:26:18.419Z,5.53
2022-11-04T22:28:45.131Z,6.60
2022-11-04T22:31:22.535Z,6.95
2022-11-04T22:33:50.248Z,6.88
2022-11-04T22:36:17.117Z,6.50
2022-11-04T22:38:44.017Z,6.13
2022-11-04T22:41:13.354Z,6.55
2022-11-04T22:43:40.017Z,6.25
2022-11-04T22:46:12.759Z,6.55
2022-11-04T22:48:39.485Z,8.10
2022-11-04T22:51:07.065Z,6.28
2022-11-04T22:53:33.679Z,8.82
2022-11-04T22:56:00.808Z,7.35
2022-11-04T22:58:28.087Z,8.32
2022-11-04T23:00:56.251Z,6.57
2022-11-04T23:03:23.262Z,6.45
2022-11-04T23:05:53.861Z,6.20
2022-11-04T23:08:20.481Z,6.05
2022-11-04T23:11:05.822Z,5.82
2022-11-04T23:16:36.198Z,6.20
2022-11-04T23:19:02.874Z,5.70
2022-11-04T23:21:48.304Z,5.22
2022-11-04T23:27:00.074Z,5.32
2022-11-04T23:29:45.449Z,5.15
2022-11-04T23:34:57.196Z,5.40
2022-11-04T23:37:23.801Z,5.28
2022-11-04T23:39:50.410Z,5.50
2022-11-04T23:42:19.087Z,5.45
2022-11-04T23:45:08.606Z,5.22
2022-11-04T23:47:58.323Z,5.53
2022-11-04T23:50:44.424Z,5.32
2022-11-04T23:53:33.567Z,5.53
2022-11-04T23:56:18.892Z,5.55
2022-11-04T23:59:04.254Z,5.28
